createdAt,value
2023-05-11T00:01:26.270Z,9.00
2023-05-11T00:03:31.101Z,9.50
2023-05-11T00:05:34.593Z,8.10
2023-05-11T00:07:37.838Z,9.23
2023-05-11T00:09:41.836Z,9.47
2023-05-11T00:11:45.083Z,9.40
2023-05-11T00:13:48.468Z,10.97
2023-05-11T00:15:51.801Z,11.20
2023-05-11T00:17:55.140Z,11.03
2023-05-11T00:19:59.776Z,11.00
2023-05-11T00:22:03.212Z,10.57
2023-05-11T00:24:07.062Z,11.23
2023-05-11T00:26:10.356Z,9.73
2023-05-11T00:28:13.844Z,10.87
2023-05-11T00:30:17.477Z,10.20
2023-05-11T00:32:20.898Z,9.90
2023-05-11T00:34:24.225Z,10.90
2023-05-11T00:36:28.871Z,11.57
2023-05-11T00:38:33.173Z,11.27
2023-05-11T00:40:36.524Z,11.23
2023-05-11T00:42:39.787Z,10.63
2023-05-11T00:44:43.378Z,10.03
2023-05-11T00:46:47.748Z,10.17
2023-05-11T00:48:51.116Z,10.40
2023-05-11T00:50:54.682Z,10.67
2023-05-11T00:53:03.403Z,11.17
2023-05-11T00:55:07.910Z,11.73
2023-05-11T00:57:11.314Z,12.00
2023-05-11T00:59:14.708Z,11.40
2023-05-11T01:01:18.908Z,12.40
2023-05-11T01:03:22.415Z,12.43
2023-05-11T01:05:31.448Z,15.27
2023-05-11T01:07:42.721Z,13.93
2023-05-11T01:09:55.427Z,14.53
2023-05-11T01:12:05.368Z,15.63
2023-05-11T01:14:16.109Z,13.97
2023-05-11T01:16:22.272Z,11.57
2023-05-11T01:18:29.510Z,15.20
2023-05-11T01:20:33.131Z,11.60
2023-05-11T01:22:49.365Z,12.63
2023-05-11T01:25:14.752Z,11.97
2023-05-11T01:27:47.450Z,12.20
2023-05-11T01:30:32.685Z,10.57
2023-05-11T01:32:41.802Z,11.33
2023-05-11T01:34:47.455Z,12.13
2023-05-11T01:36:54.782Z,12.33
2023-05-11T01:39:02.396Z,12.80
2023-05-11T01:41:15.180Z,13.80
2023-05-11T01:43:22.237Z,12.53
2023-05-11T01:45:29.090Z,11.87
2023-05-11T01:47:33.539Z,11.63
2023-05-11T01:49:39.969Z,11.10
2023-05-11T01:51:45.176Z,10.07
2023-05-11T01:53:49.215Z,9.03
2023-05-11T01:55:54.045Z,7.80
2023-05-11T01:57:58.314Z,9.53
2023-05-11T02:00:02.151Z,7.87
2023-05-11T02:02:07.085Z,10.00
2023-05-11T02:04:12.057Z,9.30
2023-05-11T02:06:18.985Z,9.20
2023-05-11T02:08:23.396Z,8.50
2023-05-11T02:10:28.274Z,8.43
2023-05-11T02:12:33.880Z,9.60
2023-05-11T02:14:38.041Z,10.10
2023-05-11T02:16:41.999Z,10.83
2023-05-11T02:18:45.978Z,9.03
2023-05-11T02:20:50.758Z,10.20
2023-05-11T02:22:56.579Z,9.50
2023-05-11T02:24:59.815Z,9.80
2023-05-11T02:27:03.276Z,9.90
2023-05-11T02:29:06.553Z,9.53
2023-05-11T02:31:17.677Z,10.30
2023-05-11T02:33:23.654Z,11.77
2023-05-11T02:35:31.349Z,11.07
2023-05-11T02:37:36.377Z,11.03
2023-05-11T02:39:45.427Z,9.67
2023-05-11T02:41:51.085Z,9.90
2023-05-11T02:43:57.029Z,10.57
2023-05-11T02:46:04.120Z,8.60
2023-05-11T02:48:10.856Z,8.97
2023-05-11T02:50:16.439Z,9.63
2023-05-11T02:52:21.039Z,9.50
2023-05-11T02:54:25.514Z,9.67
2023-05-11T02:56:31.030Z,9.83
2023-05-11T02:58:34.698Z,10.20
2023-05-11T03:00:39.675Z,9.33
2023-05-11T03:02:43.311Z,9.27
2023-05-11T03:04:46.658Z,9.10
2023-05-11T03:06:49.850Z,8.73
2023-05-11T03:08:53.353Z,9.83
2023-05-11T03:10:59.001Z,8.17
2023-05-11T03:13:05.102Z,8.50
2023-05-11T03:15:12.052Z,8.43
2023-05-11T03:17:16.489Z,8.63
2023-05-11T03:19:20.442Z,9.50
2023-05-11T03:21:26.038Z,9.70
2023-05-11T03:23:30.367Z,11.53
2023-05-11T03:25:34.039Z,9.37
2023-05-11T03:27:38.629Z,8.87
2023-05-11T03:29:45.363Z,10.23
2023-05-11T03:31:51.136Z,10.53
2023-05-11T03:33:54.803Z,10.20
2023-05-11T03:35:59.825Z,11.43
2023-05-11T03:38:03.643Z,9.80
2023-05-11T03:40:10.233Z,10.20
2023-05-11T03:42:16.463Z,12.10
2023-05-11T03:44:22.579Z,9.33
2023-05-11T03:46:29.936Z,11.40
2023-05-11T03:48:34.272Z,10.57
2023-05-11T03:50:39.080Z,11.20
2023-05-11T03:52:42.821Z,10.70
2023-05-11T03:54:46.402Z,10.73
2023-05-11T03:56:49.783Z,10.17
2023-05-11T03:58:54.433Z,9.80
2023-05-11T04:00:58.109Z,10.00
2023-05-11T04:03:06.793Z,10.07
2023-05-11T04:05:11.141Z,9.50
2023-05-11T04:07:14.512Z,11.30
2023-05-11T04:09:18.085Z,10.73
2023-05-11T04:11:22.314Z,10.27
2023-05-11T04:13:25.572Z,10.30
2023-05-11T04:15:28.811Z,10.97
2023-05-11T04:17:32.197Z,11.03
2023-05-11T04:19:37.139Z,9.63
2023-05-11T04:21:40.424Z,10.20
2023-05-11T04:23:43.697Z,9.10
2023-05-11T04:25:47.100Z,7.67
2023-05-11T04:27:50.337Z,7.83
2023-05-11T04:29:53.870Z,6.60
2023-05-11T04:31:57.362Z,6.20
2023-05-11T04:34:00.591Z,4.57
2023-05-11T04:36:06.338Z,5.20
2023-05-11T04:38:09.611Z,5.20
2023-05-11T04:40:14.004Z,4.90
2023-05-11T04:42:17.156Z,5.37
2023-05-11T04:44:20.317Z,5.67
2023-05-11T04:46:24.003Z,5.17
2023-05-11T04:48:27.545Z,4.77
2023-05-11T04:50:30.779Z,4.50
2023-05-11T04:52:35.462Z,5.33
2023-05-11T04:54:39.248Z,5.77
2023-05-11T04:56:42.637Z,5.03
2023-05-11T04:58:45.880Z,4.57
2023-05-11T05:00:49.105Z,4.90
2023-05-11T05:02:52.689Z,5.07
2023-05-11T05:04:56.061Z,5.13
2023-05-11T05:06:59.982Z,4.07
2023-05-11T05:09:04.893Z,4.83
2023-05-11T05:11:08.215Z,4.50
2023-05-11T05:13:11.788Z,5.00
2023-05-11T05:15:15.342Z,5.47
2023-05-11T05:17:18.625Z,4.80
2023-05-11T05:19:21.861Z,4.47
2023-05-11T05:21:25.837Z,5.23
2023-05-11T05:23:29.209Z,4.90
2023-05-11T05:25:34.960Z,3.90
2023-05-11T05:27:38.357Z,4.27
2023-05-11T05:29:41.694Z,4.07
2023-05-11T05:31:45.179Z,4.60
2023-05-11T05:33:48.679Z,4.20
2023-05-11T05:35:51.918Z,4.13
2023-05-11T05:37:55.461Z,2.87
2023-05-11T05:39:58.889Z,4.23
2023-05-11T05:42:04.293Z,3.77
2023-05-11T05:44:07.942Z,3.90
2023-05-11T05:46:11.182Z,3.70
2023-05-11T05:48:14.466Z,4.63
2023-05-11T05:50:18.095Z,4.70
2023-05-11T05:52:21.569Z,4.23
2023-05-11T05:54:24.904Z,4.27
2023-05-11T05:56:28.144Z,3.77
2023-05-11T05:58:33.073Z,3.80
2023-05-11T06:00:37.202Z,3.60
2023-05-11T06:02:40.567Z,3.40
2023-05-11T06:04:43.944Z,3.57
2023-05-11T06:06:47.373Z,3.87
2023-05-11T06:08:51.778Z,3.90
2023-05-11T06:10:55.467Z,4.07
2023-05-11T06:12:58.710Z,3.97
2023-05-11T06:15:03.760Z,5.00
2023-05-11T06:17:06.913Z,5.00
2023-05-11T06:19:10.361Z,5.10
2023-05-11T06:21:13.734Z,4.67
2023-05-11T06:23:17.020Z,4.50
2023-05-11T06:25:20.294Z,4.90
2023-05-11T06:27:23.525Z,4.90
2023-05-11T06:29:26.860Z,4.47
2023-05-11T06:31:31.694Z,5.30
2023-05-11T06:33:35.668Z,4.30
2023-05-11T06:35:39.041Z,4.27
2023-05-11T06:37:42.500Z,5.30
2023-05-11T06:39:49.208Z,4.80
2023-05-11T06:41:55.304Z,4.37
2023-05-11T06:44:00.912Z,4.60
2023-05-11T06:46:04.692Z,5.13
2023-05-11T06:48:09.504Z,4.77
2023-05-11T06:50:12.934Z,5.13
2023-05-11T06:52:16.279Z,6.60
2023-05-11T06:54:19.509Z,4.37
2023-05-11T06:56:23.037Z,4.23
2023-05-11T06:58:27.029Z,4.03
2023-05-11T07:00:30.410Z,4.33
2023-05-11T07:02:33.828Z,4.30
2023-05-11T07:04:38.521Z,4.20
2023-05-11T07:06:41.907Z,4.63
2023-05-11T07:08:45.303Z,3.73
2023-05-11T07:10:48.642Z,4.00
2023-05-11T07:12:52.148Z,3.87
2023-05-11T07:14:55.556Z,4.00
2023-05-11T07:16:58.865Z,3.97
2023-05-11T07:19:02.298Z,4.20
2023-05-11T07:21:07.046Z,4.10
2023-05-11T07:23:10.355Z,4.27
2023-05-11T07:25:13.664Z,3.97
2023-05-11T07:27:16.924Z,3.73
2023-05-11T07:29:20.248Z,3.73
2023-05-11T07:31:23.625Z,4.47
2023-05-11T07:33:26.909Z,4.03
2023-05-11T07:35:30.993Z,3.87
2023-05-11T07:37:35.766Z,3.70
2023-05-11T07:39:39.025Z,4.70
2023-05-11T07:41:42.400Z,4.03
2023-05-11T07:43:45.817Z,4.10
2023-05-11T07:45:49.108Z,3.77
2023-05-11T07:47:53.593Z,4.30
2023-05-11T07:49:56.918Z,4.30
2023-05-11T07:52:00.263Z,4.20
2023-05-11T07:54:05.646Z,5.10
2023-05-11T07:56:10.599Z,3.80
2023-05-11T07:58:13.961Z,3.53
2023-05-11T08:00:17.875Z,4.27
2023-05-11T08:02:21.433Z,5.27
2023-05-11T08:04:25.208Z,5.00
2023-05-11T08:06:28.480Z,4.50
2023-05-11T08:08:31.749Z,3.70
2023-05-11T08:10:37.014Z,4.80
2023-05-11T08:12:40.441Z,4.30
2023-05-11T08:14:44.406Z,4.53
2023-05-11T08:16:48.589Z,4.80
2023-05-11T08:18:52.187Z,4.60
2023-05-11T08:20:55.678Z,4.90
2023-05-11T08:22:58.974Z,4.30
2023-05-11T08:25:02.264Z,3.90
2023-05-11T08:27:07.120Z,4.37
2023-05-11T08:29:11.049Z,5.23
2023-05-11T08:31:15.232Z,5.17
2023-05-11T08:33:35.783Z,4.70
2023-05-11T08:35:40.984Z,5.43
2023-05-11T08:37:44.424Z,5.60
2023-05-11T08:39:48.164Z,4.80
2023-05-11T08:41:52.454Z,4.60
2023-05-11T08:43:58.836Z,6.43
2023-05-11T08:46:05.289Z,6.23
2023-05-11T08:48:08.845Z,6.00
2023-05-11T08:50:12.460Z,5.97
2023-05-11T08:52:17.940Z,5.50
2023-05-11T08:54:21.136Z,6.40
2023-05-11T08:56:26.835Z,6.07
2023-05-11T08:58:31.318Z,5.57
2023-05-11T09:00:36.689Z,5.60
2023-05-11T09:02:40.453Z,5.70
2023-05-11T09:04:46.092Z,6.17
2023-05-11T09:06:51.799Z,5.83
2023-05-11T09:08:55.587Z,6.10
2023-05-11T09:10:59.483Z,5.73
2023-05-11T09:13:02.712Z,6.17
2023-05-11T09:15:06.829Z,6.20
2023-05-11T09:17:11.640Z,6.20
2023-05-11T09:19:16.910Z,5.70
2023-05-11T09:21:20.998Z,6.27
2023-05-11T09:23:27.214Z,6.33
2023-05-11T09:25:35.232Z,6.27
2023-05-11T09:27:43.161Z,6.40
2023-05-11T09:29:51.814Z,6.47
2023-05-11T09:31:55.755Z,5.87
2023-05-11T09:34:15.960Z,6.40
2023-05-11T09:36:25.553Z,6.03
2023-05-11T09:38:28.855Z,6.23
2023-05-11T09:40:34.087Z,5.80
2023-05-11T09:42:37.723Z,5.27
2023-05-11T09:44:41.797Z,6.60
2023-05-11T09:46:46.391Z,6.83
2023-05-11T09:49:00.353Z,6.60
2023-05-11T09:51:07.325Z,5.57
2023-05-11T09:53:11.228Z,6.47
2023-05-11T09:55:14.565Z,6.67
2023-05-11T09:57:28.607Z,6.77
2023-05-11T09:59:39.678Z,6.73
2023-05-11T10:01:42.992Z,6.60
2023-05-11T10:03:58.187Z,6.70
2023-05-11T10:06:10.701Z,7.00
2023-05-11T10:08:14.245Z,7.03
2023-05-11T10:10:18.720Z,6.20
2023-05-11T10:12:23.792Z,6.90
2023-05-11T10:14:29.843Z,7.70
2023-05-11T10:16:33.864Z,7.20
2023-05-11T10:18:38.339Z,6.80
2023-05-11T10:20:42.297Z,7.80
2023-05-11T10:22:47.629Z,7.97
2023-05-11T10:24:52.213Z,7.57
2023-05-11T10:26:57.852Z,9.20
2023-05-11T10:29:01.848Z,9.00
2023-05-11T10:31:05.929Z,8.50
2023-05-11T10:33:10.812Z,8.17
2023-05-11T10:35:14.653Z,8.47
2023-05-11T10:37:18.219Z,9.00
2023-05-11T10:39:23.456Z,8.67
2023-05-11T10:41:52.403Z,7.33
2023-05-11T10:44:21.084Z,7.57
2023-05-11T10:46:39.177Z,7.50
2023-05-11T10:49:10.270Z,7.70
2023-05-11T10:51:57.481Z,7.87
2023-05-11T10:54:14.618Z,7.60
2023-05-11T10:56:50.902Z,7.43
2023-05-11T10:59:17.457Z,7.10
2023-05-11T11:01:32.561Z,7.20
2023-05-11T11:03:36.241Z,6.70
2023-05-11T11:05:40.124Z,6.83
2023-05-11T11:08:04.157Z,6.93
2023-05-11T11:10:09.189Z,7.13
2023-05-11T11:12:14.879Z,5.73
2023-05-11T11:14:19.402Z,7.27
2023-05-11T11:16:25.111Z,7.47
2023-05-11T11:18:30.193Z,7.23
2023-05-11T11:20:48.844Z,7.30
2023-05-11T11:22:52.243Z,6.80
2023-05-11T11:24:55.654Z,6.30
2023-05-11T11:26:58.896Z,6.37
2023-05-11T11:29:13.438Z,6.67
2023-05-11T11:31:26.737Z,7.63
2023-05-11T11:33:34.800Z,7.60
2023-05-11T11:35:47.405Z,8.10
2023-05-11T11:38:03.864Z,8.47
2023-05-11T11:40:15.273Z,7.87
2023-05-11T11:42:20.427Z,7.47
2023-05-11T11:44:25.251Z,8.30
2023-05-11T11:46:30.025Z,8.60
2023-05-11T11:48:35.846Z,8.33
2023-05-11T11:50:40.102Z,8.50
2023-05-11T11:52:43.700Z,8.87
2023-05-11T11:54:47.431Z,8.10
2023-05-11T11:56:50.749Z,7.43
2023-05-11T11:59:00.975Z,8.40
2023-05-11T12:01:06.029Z,9.93
2023-05-11T12:03:11.399Z,7.57
2023-05-11T12:05:19.019Z,9.60
2023-05-11T12:07:23.104Z,9.30
2023-05-11T12:09:27.810Z,8.27
2023-05-11T12:11:31.306Z,8.17
2023-05-11T12:13:35.597Z,7.70
2023-05-11T12:15:38.928Z,8.03
2023-05-11T12:17:43.586Z,9.00
2023-05-11T12:19:47.083Z,8.60
2023-05-11T12:21:50.370Z,8.70
2023-05-11T12:23:54.992Z,9.57
2023-05-11T12:26:08.490Z,8.57
2023-05-11T12:28:13.042Z,9.83
2023-05-11T12:30:26.885Z,9.13
2023-05-11T12:32:31.737Z,9.07
2023-05-11T12:34:36.614Z,9.50
2023-05-11T12:36:40.411Z,8.43
2023-05-11T12:38:47.816Z,8.70
2023-05-11T12:40:52.495Z,7.93
2023-05-11T12:42:57.425Z,8.60
2023-05-11T12:45:00.744Z,9.40
2023-05-11T12:47:04.097Z,7.70
2023-05-11T12:49:07.995Z,8.03
2023-05-11T12:51:12.784Z,7.73
2023-05-11T12:53:17.019Z,8.63
2023-05-11T12:55:29.183Z,8.17
2023-05-11T12:57:33.956Z,9.93
2023-05-11T12:59:39.045Z,8.37
2023-05-11T13:01:42.414Z,7.83
2023-05-11T13:03:47.642Z,8.10
2023-05-11T13:05:51.662Z,8.70
2023-05-11T13:08:07.175Z,8.10
2023-05-11T13:10:11.473Z,7.17
2023-05-11T13:12:31.970Z,9.57
2023-05-11T13:14:38.643Z,7.80
2023-05-11T13:16:42.003Z,8.03
2023-05-11T13:18:58.571Z,8.67
2023-05-11T13:21:09.510Z,7.50
2023-05-11T13:23:16.397Z,7.63
2023-05-11T13:25:21.656Z,6.80
2023-05-11T13:27:25.344Z,6.93
2023-05-11T13:29:28.842Z,8.10
2023-05-11T13:31:32.242Z,8.17
2023-05-11T13:33:35.670Z,7.50
2023-05-11T13:35:40.142Z,6.83
2023-05-11T13:37:43.586Z,7.53
2023-05-11T13:39:48.277Z,6.60
2023-05-11T13:41:55.956Z,7.40
2023-05-11T13:44:10.008Z,7.40
2023-05-11T13:46:31.098Z,7.40
2023-05-11T13:48:34.606Z,7.47
2023-05-11T13:50:37.940Z,7.67
2023-05-11T13:52:41.768Z,7.70
2023-05-11T13:54:44.969Z,7.43
2023-05-11T13:56:50.076Z,8.00
2023-05-11T13:58:53.291Z,7.30
2023-05-11T14:01:07.943Z,6.97
2023-05-11T14:03:11.913Z,7.40
2023-05-11T14:05:15.602Z,7.70
2023-05-11T14:07:18.825Z,6.93
2023-05-11T14:09:25.307Z,6.20
2023-05-11T14:11:28.546Z,6.67
2023-05-11T14:13:33.273Z,6.80
2023-05-11T14:15:37.477Z,7.50
2023-05-11T14:17:43.150Z,7.10
2023-05-11T14:19:47.572Z,7.50
2023-05-11T14:21:50.885Z,6.80
2023-05-11T14:24:10.004Z,6.20
2023-05-11T14:26:15.192Z,6.97
2023-05-11T14:28:18.765Z,6.93
2023-05-11T14:30:23.519Z,7.70
2023-05-11T14:32:27.338Z,8.37
2023-05-11T14:34:30.603Z,6.40
2023-05-11T14:36:33.991Z,7.27
2023-05-11T14:38:37.435Z,6.77
2023-05-11T14:40:40.825Z,6.63
2023-05-11T14:42:44.141Z,7.03
2023-05-11T14:44:47.764Z,7.50
2023-05-11T14:46:52.403Z,7.53
2023-05-11T14:48:56.278Z,6.43
2023-05-11T14:50:59.463Z,6.27
2023-05-11T14:53:02.921Z,6.90
2023-05-11T14:55:06.873Z,7.03
2023-05-11T14:57:10.116Z,7.27
2023-05-11T14:59:13.404Z,6.87
2023-05-11T15:01:16.861Z,6.90
2023-05-11T15:03:21.742Z,6.40
2023-05-11T15:05:24.967Z,7.60
2023-05-11T15:07:28.365Z,6.57
2023-05-11T15:09:32.199Z,6.57
2023-05-11T15:11:37.269Z,6.60
2023-05-11T15:13:41.136Z,6.70
2023-05-11T15:15:44.487Z,6.13
2023-05-11T15:17:48.434Z,6.00
2023-05-11T15:19:53.216Z,7.27
2023-05-11T15:21:56.509Z,7.30
2023-05-11T15:23:59.800Z,6.80
2023-05-11T15:26:03.566Z,6.30
2023-05-11T15:28:07.382Z,6.63
2023-05-11T15:30:11.532Z,6.10
2023-05-11T15:32:17.691Z,5.53
2023-05-11T15:34:21.004Z,5.83
2023-05-11T15:36:29.736Z,6.00
2023-05-11T15:38:33.218Z,6.80
2023-05-11T15:40:36.586Z,6.47
2023-05-11T15:42:40.163Z,7.60
2023-05-11T15:44:43.532Z,6.47
2023-05-11T15:46:47.535Z,6.80
2023-05-11T15:48:50.877Z,7.63
2023-05-11T15:50:54.331Z,6.23
2023-05-11T15:53:01.031Z,6.67
2023-05-11T15:55:05.406Z,7.17
2023-05-11T15:57:08.750Z,6.90
2023-05-11T15:59:12.045Z,6.77
2023-05-11T16:01:15.375Z,7.03
2023-05-11T16:03:19.949Z,6.00
2023-05-11T16:05:23.559Z,6.33
2023-05-11T16:07:27.297Z,6.60
2023-05-11T16:09:31.954Z,7.00
2023-05-11T16:11:35.277Z,7.00
2023-05-11T16:13:38.602Z,6.80
2023-05-11T16:15:41.857Z,5.87
2023-05-11T16:17:46.366Z,7.90
2023-05-11T16:19:49.979Z,6.90
2023-05-11T16:21:53.236Z,6.83
2023-05-11T16:23:56.755Z,6.60
2023-05-11T16:26:01.485Z,6.30
2023-05-11T16:28:05.367Z,6.70
2023-05-11T16:30:22.347Z,6.30
2023-05-11T16:32:27.653Z,7.00
2023-05-11T16:34:30.928Z,8.33
2023-05-11T16:36:34.222Z,7.33
2023-05-11T16:38:37.640Z,7.60
2023-05-11T16:40:40.853Z,7.50
2023-05-11T16:42:49.210Z,7.30
2023-05-11T16:44:52.475Z,6.77
2023-05-11T16:46:55.921Z,6.97
2023-05-11T16:49:01.177Z,7.43
2023-05-11T16:51:05.633Z,6.50
2023-05-11T16:53:09.420Z,7.07
2023-05-11T16:55:12.749Z,7.83
2023-05-11T16:57:16.343Z,6.27
2023-05-11T16:59:21.017Z,7.20
2023-05-11T17:01:24.853Z,6.73
2023-05-11T17:03:28.469Z,6.97
2023-05-11T17:05:31.817Z,8.50
2023-05-11T17:07:35.560Z,7.57
2023-05-11T17:09:38.897Z,7.53
2023-05-11T17:11:42.390Z,7.93
2023-05-11T17:13:45.890Z,7.20
2023-05-11T17:15:51.597Z,7.37
2023-05-11T17:17:55.215Z,7.70
2023-05-11T17:19:58.598Z,9.67
2023-05-11T17:22:01.850Z,8.40
2023-05-11T17:24:05.428Z,7.77
2023-05-11T17:26:10.185Z,8.70
2023-05-11T17:28:13.474Z,8.43
2023-05-11T17:30:21.957Z,8.67
2023-05-11T17:32:27.356Z,8.50
2023-05-11T17:34:31.304Z,9.57
2023-05-11T17:36:35.693Z,7.93
2023-05-11T17:38:39.034Z,8.47
2023-05-11T17:40:42.222Z,9.07
2023-05-11T17:42:45.505Z,7.63
2023-05-11T17:44:48.744Z,7.60
2023-05-11T17:46:52.008Z,7.70
2023-05-11T17:48:56.998Z,9.40
2023-05-11T17:51:00.307Z,8.30
2023-05-11T17:53:03.525Z,7.70
2023-05-11T17:55:08.144Z,8.20
2023-05-11T17:57:11.458Z,6.67
2023-05-11T17:59:15.302Z,6.33
2023-05-11T18:01:19.692Z,7.47
2023-05-11T18:03:23.198Z,7.20
2023-05-11T18:05:40.477Z,6.73
2023-05-11T18:07:51.338Z,8.67
2023-05-11T18:09:54.562Z,7.10
2023-05-11T18:11:57.841Z,8.30
2023-05-11T18:14:01.023Z,7.07
2023-05-11T18:16:04.325Z,8.30
2023-05-11T18:18:07.939Z,7.80
2023-05-11T18:20:12.134Z,6.83
2023-05-11T18:22:17.531Z,7.10
2023-05-11T18:24:20.896Z,6.60
2023-05-11T18:26:26.333Z,7.50
2023-05-11T18:28:29.710Z,8.47
2023-05-11T18:30:35.759Z,8.00
2023-05-11T18:32:39.360Z,7.70
2023-05-11T18:34:43.366Z,7.40
2023-05-11T18:36:46.939Z,7.60
2023-05-11T18:38:51.567Z,7.43
2023-05-11T18:40:56.354Z,6.80
2023-05-11T18:42:59.887Z,8.10
2023-05-11T18:45:03.895Z,6.90
2023-05-11T18:47:08.485Z,7.80
2023-05-11T18:49:11.763Z,6.30
2023-05-11T18:51:19.182Z,7.37
2023-05-11T18:53:22.491Z,7.50
2023-05-11T18:55:30.850Z,6.30
2023-05-11T18:57:34.676Z,8.20
2023-05-11T18:59:41.557Z,8.23
2023-05-11T19:01:48.197Z,7.43
2023-05-11T19:03:52.144Z,7.63
2023-05-11T19:05:55.375Z,8.17
2023-05-11T19:07:58.850Z,8.10
2023-05-11T19:10:02.187Z,7.67
2023-05-11T19:12:07.732Z,7.57
2023-05-11T19:14:14.697Z,7.20
2023-05-11T19:16:19.693Z,8.43
2023-05-11T19:18:23.162Z,7.33
2023-05-11T19:20:26.608Z,7.37
2023-05-11T19:22:30.326Z,6.80
2023-05-11T19:24:33.523Z,6.20
2023-05-11T19:26:38.377Z,7.63
2023-05-11T19:28:42.966Z,7.23
2023-05-11T19:30:46.300Z,6.13
2023-05-11T19:32:49.681Z,6.90
2023-05-11T19:34:53.166Z,6.30
2023-05-11T19:36:56.401Z,6.90
2023-05-11T19:38:59.631Z,8.17
2023-05-11T19:41:03.283Z,7.60
2023-05-11T19:43:06.653Z,7.90
2023-05-11T19:45:12.789Z,7.80
2023-05-11T19:47:16.505Z,6.87
2023-05-11T19:49:20.907Z,7.87
2023-05-11T19:51:24.420Z,7.10
2023-05-11T19:53:28.120Z,7.30
2023-05-11T19:55:31.686Z,7.93
2023-05-11T19:57:37.439Z,8.43
2023-05-11T19:59:49.963Z,7.10
2023-05-11T20:01:55.038Z,7.57
2023-05-11T20:04:01.759Z,8.57
2023-05-11T20:06:05.119Z,8.30
2023-05-11T20:08:08.356Z,8.07
2023-05-11T20:10:12.742Z,7.80
2023-05-11T20:12:16.244Z,7.10
2023-05-11T20:14:19.840Z,7.33
2023-05-11T20:16:23.321Z,7.00
2023-05-11T20:18:28.191Z,6.70
2023-05-11T20:20:32.643Z,6.13
2023-05-11T20:22:36.298Z,7.10
2023-05-11T20:24:39.766Z,6.73
2023-05-11T20:26:42.922Z,7.43
2023-05-11T20:28:46.318Z,7.27
2023-05-11T20:30:50.159Z,7.57
2023-05-11T20:35:00.981Z,5.47
2023-05-11T20:37:04.220Z,7.23
2023-05-11T20:39:07.780Z,7.60
2023-05-11T20:41:11.314Z,7.10
2023-05-11T20:43:15.076Z,7.10
2023-05-11T20:45:22.564Z,5.97
2023-05-11T20:47:25.810Z,7.40
2023-05-11T20:49:38.256Z,6.93
2023-05-11T20:51:44.413Z,7.23
2023-05-11T20:53:47.716Z,6.33
2023-05-11T20:55:51.851Z,7.40
2023-05-11T20:57:55.098Z,7.13
2023-05-11T21:02:05.019Z,5.97
2023-05-11T21:04:08.759Z,6.60
2023-05-11T21:06:12.089Z,6.80
2023-05-11T21:08:16.825Z,7.97
2023-05-11T21:10:20.302Z,5.50
2023-05-11T21:12:23.700Z,6.07
2023-05-11T21:14:27.058Z,6.10
2023-05-11T21:16:30.351Z,7.70
2023-05-11T21:18:34.445Z,8.70
2023-05-11T21:20:37.991Z,11.40
2023-05-11T21:22:41.361Z,10.57
2023-05-11T21:24:46.212Z,7.93
2023-05-11T21:26:50.031Z,7.37
2023-05-11T21:28:53.235Z,5.90
2023-05-11T21:30:58.036Z,7.00
2023-05-11T21:33:01.409Z,8.20
2023-05-11T21:35:05.185Z,8.60
2023-05-11T21:37:08.564Z,6.03
2023-05-11T21:39:13.078Z,5.50
2023-05-11T21:41:18.622Z,5.63
2023-05-11T21:43:22.325Z,5.20
2023-05-11T21:45:25.519Z,5.90
2023-05-11T21:47:28.981Z,10.73
2023-05-11T21:49:33.220Z,11.40
2023-05-11T21:51:36.972Z,11.07
2023-05-11T21:53:40.541Z,9.27
2023-05-11T21:55:43.805Z,11.37
2023-05-11T21:57:48.626Z,7.70
2023-05-11T21:59:51.913Z,7.70
2023-05-11T22:01:57.209Z,9.53
2023-05-11T22:04:01.257Z,7.63
2023-05-11T22:06:04.708Z,7.97
2023-05-11T22:08:15.112Z,4.93
2023-05-11T22:10:19.259Z,4.80
2023-05-11T22:12:22.618Z,4.00
2023-05-11T22:14:27.328Z,4.10
2023-05-11T22:16:30.606Z,3.50
2023-05-11T22:18:34.063Z,3.03
2023-05-11T22:20:37.421Z,3.00
2023-05-11T22:22:41.160Z,2.40
2023-05-11T22:24:44.401Z,2.60
2023-05-11T22:26:47.756Z,2.90
2023-05-11T22:28:51.205Z,2.90
2023-05-11T22:30:56.048Z,2.90
2023-05-11T22:32:59.443Z,3.37
2023-05-11T22:35:03.051Z,2.70
2023-05-11T22:37:06.920Z,2.43
2023-05-11T22:39:11.464Z,2.10
2023-05-11T22:41:14.870Z,1.70
2023-05-11T22:43:18.330Z,1.47
2023-05-11T22:45:21.708Z,2.20
2023-05-11T22:47:26.586Z,1.90
2023-05-11T22:49:30.127Z,2.33
2023-05-11T22:51:33.315Z,2.37
2023-05-11T22:53:36.557Z,1.57
2023-05-11T22:55:40.071Z,2.10
2023-05-11T22:57:44.052Z,1.67
2023-05-11T22:59:47.338Z,1.50
2023-05-11T23:01:51.218Z,1.67
2023-05-11T23:03:56.191Z,1.70
2023-05-11T23:05:59.485Z,1.37
2023-05-11T23:08:03.139Z,1.53
2023-05-11T23:10:07.551Z,1.67
2023-05-11T23:12:10.989Z,1.40
2023-05-11T23:14:14.222Z,1.40
2023-05-11T23:16:17.908Z,0.93
2023-05-11T23:18:24.677Z,1.03
2023-05-11T23:20:29.886Z,1.00
2023-05-11T23:22:33.263Z,0.97
2023-05-11T23:24:36.526Z,1.00
2023-05-11T23:26:40.082Z,0.80
2023-05-11T23:28:43.374Z,1.10
2023-05-11T23:30:47.295Z,0.80
2023-05-11T23:32:50.769Z,0.80
2023-05-11T23:34:54.027Z,0.77
2023-05-11T23:36:58.625Z,0.70
2023-05-11T23:39:01.874Z,0.73
2023-05-11T23:41:05.340Z,0.80
2023-05-11T23:43:08.781Z,0.90
2023-05-11T23:45:13.630Z,0.90
2023-05-11T23:47:17.007Z,1.03
2023-05-11T23:49:20.465Z,1.00
2023-05-11T23:51:23.814Z,0.80
2023-05-11T23:53:28.572Z,0.70
2023-05-11T23:55:32.086Z,0.70
2023-05-11T23:57:35.342Z,2.00
2023-05-11T23:59:38.670Z,0.63
